Aeroporto :
LOGIN :

Iscrizione | Disclaimer

   EN    FR    IT 

 










Sommario :    VFR   VFR Marginale   IFR   IFR Intensivo   IFR Molto Intensivo
Visibilità : 
Base nubi : 
>= 8 km
>= 3000ft
5 / 8 km
1000 / 3000 ft
1500m / 5 km
500 / 1000 ft
800 / 1500m
200 / 500 ft
< 800m
< 200 ft
Simboli :   Temporali  Nebbia  Neve Forte  Precipitazioni Forti  Vento > 20 kt
SIGMETs :   Varie  Temporali  Ghiacco  Turbolenza  Onda orograficha  Ceneri Vulcaniche







- Altitudine del aeroporto : 22 ft
- Codice IATA : TUN


DTTA - Tunis Carthage

ULTIMO METAR :
  • 211830Z 33010KT 8000 SCT026 21/15 Q1016

METARs OBSOLETI :
  • 211800Z 34007KT 8000 -RA SCT026 22/15 Q1015
  • 211730Z 34010KT 8000 -RA SCT026 22/15 Q1015
  • 211700Z 13003KT 090V260 9999 SCT033 23/14 Q1015
  • 211630Z 13009KT 100V180 9999 SCT033 24/12 Q1015
  • 211600Z 13007KT 100V170 9999 SCT033 25/12 Q1014

TAF TAF DTTA
Valido dal 21 a 18 ore il 22 a 18 ore UTC


211700Z 2118/2218 13010KT 9999 FEW030
PROB30
TEMPO 2216/2218 4000 -TSRA FEW023CB
Nessun NOTAM noto per questo aeroporto.
2 SIGMETs conosciuti per la FIR Tunis (DTTC) :
 
Turbolenza severa
DTTC SIGMET 01 VALID 211700/212100 DTTA
DTTC TUNIS FIR LOC SEV TURB FCST N OF LINE N3519 E00812 - N3547 E01047 ABV FL250 MOV EAST NC.=
Turbolenza severa
DTTC AIRMET 01 VALID 211700/212100 DTTA
DTTC TUNIS FIR LOC SEV TURB FCST N OF LINE N3519 E00812 - N3547 E01047 ABV FL250 MOV EAST NC.=



MetMap, La meteo Aeronautica in un colpo d'occhio ! - Copyright ORBIFLY Dicembre 2007 - Disclaimer

ORBIFLY MET'MAP TEAM :

Programmazione e sviluppo : Alexandra Zaïnal
Concezione e sviluppo : Baudouin d'Aumeries
Co-Programmazione e sviluppo : Marc-Olivier Méhu
Supporto tecnico e logistico : Manuel Goepfert
Aiuto per la traduzione : Arnaldo La Scala

Contatto : metmap@orbifly.com




FONTI E CREDITI :

   NOAA